createdAt,value
2024-02-02T00:00:55.553Z,4.58
2024-02-02T00:02:57.397Z,4.57
2024-02-02T00:04:59.137Z,4.59
2024-02-02T00:07:01.035Z,4.60
2024-02-02T00:09:02.888Z,4.58
2024-02-02T00:11:05.327Z,4.57
2024-02-02T00:13:07.128Z,4.58
2024-02-02T00:15:09.819Z,4.56
2024-02-02T00:17:11.905Z,4.55
2024-02-02T00:19:14.026Z,4.57
2024-02-02T00:21:15.899Z,4.55
2024-02-02T00:23:17.732Z,4.54
2024-02-02T00:25:19.525Z,4.54
2024-02-02T00:27:21.458Z,4.53
2024-02-02T00:29:23.239Z,4.54
2024-02-02T00:31:24.976Z,4.55
2024-02-02T00:33:26.835Z,4.60
2024-02-02T00:35:29.028Z,4.59
2024-02-02T00:37:31.077Z,4.56
2024-02-02T00:39:32.836Z,4.57
2024-02-02T00:41:34.657Z,4.59
2024-02-02T00:43:36.660Z,4.60
2024-02-02T00:45:38.404Z,4.59
2024-02-02T00:47:40.228Z,4.60
2024-02-02T00:49:42.212Z,4.62
2024-02-02T00:51:44.090Z,4.64
2024-02-02T00:53:45.924Z,4.63
2024-02-02T00:55:47.658Z,4.64
2024-02-02T00:57:49.500Z,4.65
2024-02-02T00:59:51.855Z,4.66
2024-02-02T01:01:53.688Z,4.65
2024-02-02T01:03:55.842Z,4.66
2024-02-02T01:05:57.670Z,4.67
2024-02-02T01:07:59.776Z,4.67
2024-02-02T01:10:01.673Z,4.68
2024-02-02T01:12:03.769Z,4.70
2024-02-02T01:14:05.728Z,4.69
2024-02-02T01:16:07.776Z,4.71
2024-02-02T01:18:09.880Z,4.71
2024-02-02T01:20:15.033Z,4.72
2024-02-02T01:22:17.227Z,4.72
2024-02-02T01:24:21.885Z,4.73
2024-02-02T01:26:24.005Z,4.71
2024-02-02T01:28:25.803Z,4.72
2024-02-02T01:30:31.142Z,4.73
2024-02-02T01:32:33.822Z,4.74
2024-02-02T01:34:36.137Z,4.75
2024-02-02T01:36:38.112Z,4.74
2024-02-02T01:38:39.923Z,4.75
2024-02-02T01:40:42.557Z,4.74
2024-02-02T01:42:44.353Z,4.74
2024-02-02T01:44:46.078Z,4.75
2024-02-02T01:46:48.521Z,4.76
2024-02-02T01:48:50.467Z,4.76
2024-02-02T01:50:52.315Z,4.77
2024-02-02T01:52:54.253Z,4.75
2024-02-02T01:54:57.078Z,4.75
2024-02-02T01:56:58.987Z,4.77
2024-02-02T01:59:04.378Z,4.76
2024-02-02T02:01:06.153Z,4.76
2024-02-02T02:03:08.647Z,4.76
2024-02-02T02:05:11.070Z,4.77
2024-02-02T02:07:12.979Z,4.77
2024-02-02T02:09:15.066Z,4.79
2024-02-02T02:11:17.240Z,4.77
2024-02-02T02:13:19.545Z,4.77
2024-02-02T02:15:21.821Z,4.77
2024-02-02T02:17:23.678Z,4.78
2024-02-02T02:19:25.820Z,4.79
2024-02-02T02:21:28.940Z,4.78
2024-02-02T02:23:36.697Z,4.80
2024-02-02T02:25:38.480Z,4.79
2024-02-02T02:27:40.346Z,4.80
2024-02-02T02:29:42.133Z,4.80
2024-02-02T02:31:55.961Z,4.83
2024-02-02T02:33:58.019Z,4.80
2024-02-02T02:35:59.994Z,4.82
2024-02-02T02:38:01.788Z,4.82
2024-02-02T02:40:03.984Z,4.81
2024-02-02T02:42:06.129Z,4.83
2024-02-02T02:44:07.926Z,4.83
2024-02-02T02:46:10.036Z,4.81
2024-02-02T02:48:11.946Z,4.84
2024-02-02T02:50:13.952Z,4.83
2024-02-02T02:52:15.784Z,4.83
2024-02-02T02:54:17.675Z,4.83
2024-02-02T02:56:19.468Z,4.84
2024-02-02T02:58:21.284Z,4.84
2024-02-02T03:00:29.631Z,4.83
2024-02-02T03:02:31.507Z,4.86
2024-02-02T03:04:33.339Z,4.86
2024-02-02T03:06:35.262Z,4.86
2024-02-02T03:08:37.156Z,4.87
2024-02-02T03:10:39.615Z,4.88
2024-02-02T03:12:41.435Z,4.89
2024-02-02T03:14:43.262Z,4.88
2024-02-02T03:16:45.028Z,4.90
2024-02-02T03:18:47.003Z,4.90
2024-02-02T03:20:49.033Z,4.89
2024-02-02T03:22:51.600Z,4.92
2024-02-02T03:24:53.409Z,4.91
2024-02-02T03:26:55.224Z,4.92
2024-02-02T03:28:57.039Z,4.92
2024-02-02T03:30:58.787Z,4.93
2024-02-02T03:33:00.755Z,4.94
2024-02-02T03:35:02.680Z,4.95
2024-02-02T03:37:04.692Z,4.95
2024-02-02T03:39:06.647Z,4.96
2024-02-02T03:41:08.458Z,4.96
2024-02-02T03:43:11.792Z,4.96
2024-02-02T03:45:13.961Z,4.94
2024-02-02T03:47:15.769Z,4.97
2024-02-02T03:49:17.657Z,4.97
2024-02-02T03:51:19.519Z,4.94
2024-02-02T03:53:21.352Z,4.98
2024-02-02T03:55:23.288Z,4.97
2024-02-02T03:57:25.134Z,4.98
2024-02-02T03:59:26.939Z,4.97
2024-02-02T04:01:28.780Z,4.99
2024-02-02T04:03:33.626Z,4.98
2024-02-02T04:05:35.833Z,5.01
2024-02-02T04:07:37.669Z,5.01
2024-02-02T04:09:40.083Z,5.02
2024-02-02T04:11:41.922Z,5.01
2024-02-02T04:13:43.697Z,5.01
2024-02-02T04:15:45.652Z,5.00
2024-02-02T04:17:47.502Z,5.00
2024-02-02T04:19:49.331Z,4.99
2024-02-02T04:21:51.395Z,5.00
2024-02-02T04:23:53.170Z,5.02
2024-02-02T04:25:55.017Z,5.01
2024-02-02T04:27:56.778Z,5.01
2024-02-02T04:29:58.591Z,5.02
2024-02-02T04:32:00.331Z,5.02
2024-02-02T04:34:02.387Z,5.03
2024-02-02T04:36:04.990Z,5.05
2024-02-02T04:38:07.831Z,5.03
2024-02-02T04:40:12.402Z,5.01
2024-02-02T04:42:14.169Z,5.03
2024-02-02T04:44:15.951Z,5.00
2024-02-02T04:46:18.582Z,5.02
2024-02-02T04:48:20.599Z,5.03
2024-02-02T04:50:23.538Z,5.03
2024-02-02T04:52:25.317Z,5.05
2024-02-02T04:54:27.132Z,5.06
2024-02-02T04:56:28.945Z,5.08
2024-02-02T04:58:31.499Z,5.07
2024-02-02T05:00:33.455Z,5.05
2024-02-02T05:02:35.324Z,5.05
2024-02-02T05:04:37.423Z,5.10
2024-02-02T05:06:39.327Z,5.10
2024-02-02T05:08:41.097Z,5.09
2024-02-02T05:10:42.868Z,5.11
2024-02-02T05:12:45.779Z,5.12
2024-02-02T05:14:47.597Z,5.09
2024-02-02T05:16:49.409Z,5.14
2024-02-02T05:18:52.436Z,5.14
2024-02-02T05:20:54.352Z,5.12
2024-02-02T05:22:56.211Z,5.14
2024-02-02T05:24:58.144Z,5.12
2024-02-02T05:27:00.470Z,5.12
2024-02-02T05:29:02.344Z,5.11
2024-02-02T05:31:04.218Z,5.14
2024-02-02T05:33:06.492Z,5.10
2024-02-02T05:35:08.869Z,5.12
2024-02-02T05:37:10.689Z,5.14
2024-02-02T05:39:12.557Z,5.12
2024-02-02T05:41:14.392Z,5.11
2024-02-02T05:43:16.139Z,5.13
2024-02-02T05:45:18.153Z,5.11
2024-02-02T05:47:19.999Z,5.13
2024-02-02T05:49:21.838Z,5.12
2024-02-02T05:51:23.776Z,5.13
2024-02-02T05:53:25.592Z,5.14
2024-02-02T05:55:27.368Z,5.14
2024-02-02T05:57:29.282Z,5.13
2024-02-02T05:59:31.129Z,5.16
2024-02-02T06:01:33.004Z,5.17
2024-02-02T06:03:34.891Z,5.20
2024-02-02T06:05:36.675Z,5.21
2024-02-02T06:07:39.041Z,5.22
2024-02-02T06:09:40.899Z,5.21
2024-02-02T06:11:42.937Z,5.22
2024-02-02T06:13:44.729Z,5.25
2024-02-02T06:15:47.578Z,5.24
2024-02-02T06:17:51.963Z,5.26
2024-02-02T06:19:55.259Z,5.27
2024-02-02T06:21:57.248Z,5.29
2024-02-02T06:23:59.139Z,5.30
2024-02-02T06:26:01.035Z,5.28
2024-02-02T06:28:03.572Z,5.29
2024-02-02T06:30:08.729Z,5.30
2024-02-02T06:32:10.588Z,5.29
2024-02-02T06:34:12.383Z,5.31
2024-02-02T06:36:14.198Z,5.31
2024-02-02T06:38:15.982Z,5.33
2024-02-02T06:40:17.761Z,5.33
2024-02-02T06:42:20.478Z,5.32
2024-02-02T06:44:22.340Z,5.33
2024-02-02T06:46:28.079Z,5.35
2024-02-02T06:48:30.009Z,5.35
2024-02-02T06:50:32.537Z,5.37
2024-02-02T06:52:34.355Z,5.35
2024-02-02T06:54:36.233Z,5.37
2024-02-02T06:56:48.642Z,5.38
2024-02-02T06:58:50.756Z,5.38
2024-02-02T07:00:52.861Z,5.41
2024-02-02T07:02:55.085Z,5.40
2024-02-02T07:04:57.879Z,5.41
2024-02-02T07:07:00.015Z,5.41
2024-02-02T07:09:25.017Z,5.43
2024-02-02T07:11:35.654Z,5.41
2024-02-02T07:13:46.196Z,5.42
2024-02-02T07:15:48.008Z,5.40
2024-02-02T07:17:51.350Z,5.40
2024-02-02T07:19:54.167Z,5.41
2024-02-02T07:21:56.035Z,5.42
2024-02-02T07:23:59.298Z,5.43
2024-02-02T07:26:02.307Z,5.44
2024-02-02T07:28:06.600Z,5.48
2024-02-02T07:30:24.728Z,5.50
2024-02-02T07:32:27.209Z,5.51
2024-02-02T07:34:43.119Z,5.50
2024-02-02T07:36:45.624Z,5.53
2024-02-02T07:38:56.061Z,5.56
2024-02-02T07:41:13.598Z,5.58
2024-02-02T07:43:15.460Z,5.61
2024-02-02T07:45:17.336Z,5.60
2024-02-02T07:47:19.245Z,5.62
2024-02-02T07:49:21.172Z,5.63
2024-02-02T07:51:28.472Z,5.65
2024-02-02T07:53:30.642Z,5.66
2024-02-02T07:55:32.478Z,5.68
2024-02-02T07:57:34.421Z,5.69
2024-02-02T07:59:36.242Z,5.70
2024-02-02T08:01:38.159Z,5.71
2024-02-02T08:03:40.328Z,5.74
2024-02-02T08:05:42.498Z,5.75
2024-02-02T08:07:44.252Z,5.76
2024-02-02T08:09:46.199Z,5.74
2024-02-02T08:11:48.104Z,5.74
2024-02-02T08:13:51.334Z,5.78
2024-02-02T08:15:53.236Z,5.81
2024-02-02T08:17:55.228Z,5.81
2024-02-02T08:19:57.224Z,5.82
2024-02-02T08:21:59.685Z,5.82
2024-02-02T08:24:02.179Z,5.82
2024-02-02T08:26:04.129Z,5.81
2024-02-02T08:28:06.289Z,5.85
2024-02-02T08:30:15.860Z,5.85
2024-02-02T08:32:17.836Z,5.85
2024-02-02T08:34:19.898Z,5.85
2024-02-02T08:36:21.978Z,5.83
2024-02-02T08:38:23.778Z,5.87
2024-02-02T08:40:41.855Z,5.87
2024-02-02T08:42:44.123Z,5.84
2024-02-02T08:44:46.546Z,5.84
2024-02-02T08:46:50.136Z,5.81
2024-02-02T08:48:52.742Z,5.82
2024-02-02T08:51:01.988Z,5.82
2024-02-02T08:53:04.738Z,5.83
2024-02-02T08:55:21.663Z,5.85
2024-02-02T08:57:38.283Z,5.86
2024-02-02T08:59:44.920Z,5.84
2024-02-02T09:01:46.776Z,5.85
2024-02-02T09:03:48.989Z,5.89
2024-02-02T09:05:54.324Z,5.88
2024-02-02T09:08:27.063Z,5.90
2024-02-02T09:10:31.874Z,5.90
2024-02-02T09:12:35.112Z,5.91
2024-02-02T09:14:37.174Z,5.89
2024-02-02T09:16:41.605Z,5.93
2024-02-02T09:18:55.009Z,5.91
2024-02-02T09:20:56.929Z,5.92
2024-02-02T09:23:00.630Z,5.93
2024-02-02T09:25:02.629Z,5.95
2024-02-02T09:27:05.060Z,5.96
2024-02-02T09:29:11.013Z,5.99
2024-02-02T09:31:24.015Z,5.97
2024-02-02T09:33:32.033Z,5.97
2024-02-02T09:35:51.507Z,5.98
2024-02-02T09:37:53.992Z,5.98
2024-02-02T09:39:59.331Z,6.00
2024-02-02T09:42:26.642Z,6.02
2024-02-02T09:44:46.360Z,6.04
2024-02-02T09:46:48.188Z,6.06
2024-02-02T09:49:13.054Z,6.05
2024-02-02T09:51:35.352Z,6.08
2024-02-02T09:53:55.014Z,6.10
2024-02-02T09:56:08.781Z,6.13
2024-02-02T09:58:23.249Z,6.13
2024-02-02T10:00:54.491Z,6.18
2024-02-02T10:03:35.736Z,6.18
2024-02-02T10:05:37.602Z,6.17
2024-02-02T10:08:10.332Z,6.20
2024-02-02T10:10:33.112Z,6.21
2024-02-02T10:12:48.084Z,6.23
2024-02-02T10:15:03.530Z,6.23
2024-02-02T10:17:22.289Z,6.23
2024-02-02T10:19:58.187Z,6.24
2024-02-02T10:22:31.551Z,6.26
2024-02-02T10:25:02.128Z,6.28
2024-02-02T10:27:49.328Z,6.29
2024-02-02T10:30:23.632Z,6.27
2024-02-02T10:32:55.084Z,6.30
2024-02-02T10:35:32.148Z,6.34
2024-02-02T10:37:37.745Z,6.33
2024-02-02T10:39:56.879Z,6.34
2024-02-02T10:42:42.774Z,6.34
2024-02-02T10:44:53.680Z,6.37
2024-02-02T10:47:05.231Z,6.38
2024-02-02T10:49:26.497Z,6.46
2024-02-02T10:51:55.219Z,6.47
2024-02-02T10:54:53.573Z,6.48
2024-02-02T10:57:17.437Z,6.49
2024-02-02T10:59:57.814Z,6.52
2024-02-02T11:02:06.504Z,6.51
2024-02-02T11:04:14.089Z,6.51
2024-02-02T11:06:36.973Z,6.53
2024-02-02T11:08:42.962Z,6.55
2024-02-02T11:11:02.368Z,6.57
2024-02-02T11:13:37.096Z,6.59
2024-02-02T11:16:07.468Z,6.58
2024-02-02T11:18:24.988Z,6.61
2024-02-02T11:20:48.825Z,6.61
2024-02-02T11:23:03.521Z,6.60
2024-02-02T11:25:49.766Z,6.66
2024-02-02T11:27:54.717Z,6.62
2024-02-02T11:30:09.676Z,6.64
2024-02-02T11:32:45.016Z,6.63
2024-02-02T11:35:05.264Z,6.63
2024-02-02T11:37:19.012Z,6.66
2024-02-02T11:39:55.046Z,6.71
2024-02-02T11:41:59.887Z,6.74
2024-02-02T11:44:05.042Z,6.76
2024-02-02T11:46:09.574Z,6.79
2024-02-02T11:48:40.546Z,6.83
2024-02-02T11:50:48.805Z,6.86
2024-02-02T11:52:58.900Z,6.88
2024-02-02T11:55:27.920Z,6.92
2024-02-02T11:57:32.759Z,6.93
2024-02-02T11:59:40.181Z,6.98
2024-02-02T12:01:57.920Z,7.01
2024-02-02T12:04:08.514Z,7.04
2024-02-02T12:06:16.768Z,7.04
2024-02-02T12:08:51.749Z,7.06
2024-02-02T12:10:55.781Z,7.08
2024-02-02T12:13:03.948Z,7.09
2024-02-02T12:15:06.390Z,7.11
2024-02-02T12:17:12.208Z,7.16
2024-02-02T12:19:14.235Z,7.18
2024-02-02T12:21:17.060Z,7.22
2024-02-02T12:23:18.890Z,7.24
2024-02-02T12:25:20.789Z,7.28
2024-02-02T12:27:22.657Z,7.29
2024-02-02T12:29:24.473Z,7.32
2024-02-02T12:31:26.327Z,7.33
2024-02-02T12:33:28.332Z,7.35
2024-02-02T12:35:30.282Z,7.37
2024-02-02T12:37:43.493Z,7.39
2024-02-02T12:39:46.700Z,7.42
2024-02-02T12:41:51.772Z,7.43
2024-02-02T12:43:53.688Z,7.47
2024-02-02T12:45:55.489Z,7.48
2024-02-02T12:47:59.303Z,7.50
2024-02-02T12:50:01.845Z,7.51
2024-02-02T12:52:05.582Z,7.54
2024-02-02T12:54:10.733Z,7.56
2024-02-02T12:56:14.830Z,7.57
2024-02-02T12:58:17.271Z,7.57
2024-02-02T13:00:22.752Z,7.60
2024-02-02T13:02:27.689Z,7.62
2024-02-02T13:04:29.829Z,7.65
2024-02-02T13:06:33.676Z,7.66
2024-02-02T13:08:38.936Z,7.68
2024-02-02T13:10:47.269Z,7.69
2024-02-02T13:12:51.139Z,7.70
2024-02-02T13:14:52.928Z,7.72
2024-02-02T13:17:05.851Z,7.74
2024-02-02T13:19:37.769Z,7.72
2024-02-02T13:21:40.634Z,7.75
2024-02-02T13:23:44.298Z,7.77
2024-02-02T13:25:52.105Z,7.78
2024-02-02T13:27:55.531Z,7.79
2024-02-02T13:30:04.354Z,7.80
2024-02-02T13:32:16.795Z,7.80
2024-02-02T13:34:18.825Z,7.79
2024-02-02T13:36:24.089Z,7.81
2024-02-02T13:38:28.892Z,7.83
2024-02-02T13:40:31.949Z,7.82
2024-02-02T13:42:36.897Z,7.84
2024-02-02T13:44:39.247Z,7.83
2024-02-02T13:46:47.971Z,7.84
2024-02-02T13:48:56.397Z,7.83
2024-02-02T13:51:01.561Z,7.84
2024-02-02T13:53:05.848Z,7.84
2024-02-02T13:55:07.983Z,7.84
2024-02-02T13:57:11.848Z,7.86
2024-02-02T13:59:20.412Z,7.88
2024-02-02T14:01:24.043Z,7.88
2024-02-02T14:03:27.089Z,7.92
2024-02-02T14:05:29.021Z,7.90
2024-02-02T14:07:30.888Z,7.90
2024-02-02T14:09:32.889Z,7.90
2024-02-02T14:11:34.745Z,7.92
2024-02-02T14:13:36.864Z,7.89
2024-02-02T14:15:41.499Z,7.92
2024-02-02T14:17:43.399Z,7.93
2024-02-02T14:19:45.485Z,7.94
2024-02-02T14:21:47.367Z,7.94
2024-02-02T14:23:49.161Z,7.94
2024-02-02T14:25:51.433Z,7.93
2024-02-02T14:27:53.294Z,7.94
2024-02-02T14:29:55.189Z,7.95
2024-02-02T14:31:59.286Z,7.93
2024-02-02T14:34:01.289Z,7.95
2024-02-02T14:36:04.744Z,7.96
2024-02-02T14:38:07.466Z,7.96
2024-02-02T14:40:12.599Z,7.95
2024-02-02T14:42:14.437Z,7.96
2024-02-02T14:44:16.230Z,7.98
2024-02-02T14:46:22.019Z,7.97
2024-02-02T14:48:23.880Z,8.00
2024-02-02T14:50:26.788Z,7.99
2024-02-02T14:52:28.792Z,8.00
2024-02-02T14:54:32.027Z,7.99
2024-02-02T14:56:35.506Z,8.00
2024-02-02T14:58:37.387Z,8.01
2024-02-02T15:00:45.744Z,8.00
2024-02-02T15:02:49.841Z,8.02
2024-02-02T15:04:53.284Z,8.01
2024-02-02T15:06:55.286Z,8.01
2024-02-02T15:08:57.974Z,8.01
2024-02-02T15:11:01.348Z,8.01
2024-02-02T15:13:05.680Z,8.00
2024-02-02T15:15:07.862Z,7.98
2024-02-02T15:17:09.677Z,7.92
2024-02-02T15:19:11.687Z,7.88
2024-02-02T15:21:14.872Z,7.88
2024-02-02T15:23:16.849Z,7.82
2024-02-02T15:25:18.702Z,7.81
2024-02-02T15:27:20.521Z,7.79
2024-02-02T15:29:22.441Z,7.75
2024-02-02T15:31:24.649Z,7.75
2024-02-02T15:35:28.588Z,7.70
2024-02-02T15:37:30.391Z,7.70
2024-02-02T15:39:37.915Z,7.69
2024-02-02T15:41:40.535Z,7.65
2024-02-02T15:43:43.441Z,7.66
2024-02-02T15:45:45.324Z,7.66
2024-02-02T15:47:50.463Z,7.64
2024-02-02T15:49:53.697Z,7.65
2024-02-02T15:51:56.785Z,7.65
2024-02-02T15:53:58.757Z,7.63
2024-02-02T15:56:00.558Z,7.63
2024-02-02T15:58:02.594Z,7.63
2024-02-02T16:00:09.884Z,7.63
2024-02-02T16:02:11.680Z,7.62
2024-02-02T16:04:13.568Z,7.62
2024-02-02T16:06:21.336Z,7.63
2024-02-02T16:08:23.128Z,7.60
2024-02-02T16:10:25.122Z,7.61
2024-02-02T16:12:26.990Z,7.60
2024-02-02T16:14:28.784Z,7.59
2024-02-02T16:16:30.937Z,7.58
2024-02-02T16:18:32.959Z,7.59
2024-02-02T16:20:36.625Z,7.59
2024-02-02T16:22:43.092Z,7.60
2024-02-02T16:24:44.926Z,7.59
2024-02-02T16:26:46.703Z,7.58
2024-02-02T16:28:49.164Z,7.60
2024-02-02T16:30:50.971Z,7.59
2024-02-02T16:32:52.794Z,7.58
2024-02-02T16:34:54.783Z,7.59
2024-02-02T16:36:56.618Z,7.59
2024-02-02T16:38:58.386Z,7.59
2024-02-02T16:41:00.122Z,7.61
2024-02-02T16:43:01.941Z,7.60
2024-02-02T16:45:04.244Z,7.61
2024-02-02T16:47:06.225Z,7.60
2024-02-02T16:49:08.661Z,7.62
2024-02-02T16:51:17.099Z,7.63
2024-02-02T16:53:19.160Z,7.62
2024-02-02T16:55:20.932Z,7.62
2024-02-02T16:57:22.730Z,7.63
2024-02-02T16:59:24.586Z,7.61
2024-02-02T17:01:29.982Z,7.62
2024-02-02T17:03:31.874Z,7.61
2024-02-02T17:05:33.649Z,7.61
2024-02-02T17:07:35.643Z,7.61
2024-02-02T17:09:40.246Z,7.60
2024-02-02T17:11:42.092Z,7.60
2024-02-02T17:13:43.922Z,7.61
2024-02-02T17:15:45.721Z,7.59
2024-02-02T17:17:47.554Z,7.60
2024-02-02T17:19:49.435Z,7.59
2024-02-02T17:21:51.380Z,7.57
2024-02-02T17:23:53.295Z,7.58
2024-02-02T17:25:55.455Z,7.57
2024-02-02T17:27:57.194Z,7.57
2024-02-02T17:29:58.990Z,7.56
2024-02-02T17:32:00.938Z,7.56
2024-02-02T17:34:02.866Z,7.55
2024-02-02T17:36:11.214Z,7.55
2024-02-02T17:38:15.397Z,7.55
2024-02-02T17:40:17.273Z,7.54
2024-02-02T17:42:19.082Z,7.54
2024-02-02T17:44:23.667Z,7.56
2024-02-02T17:46:27.407Z,7.55
2024-02-02T17:48:29.272Z,7.56
2024-02-02T17:50:31.247Z,7.56
2024-02-02T17:52:33.446Z,7.56
2024-02-02T17:54:35.262Z,7.55
2024-02-02T17:56:37.008Z,7.56
2024-02-02T17:58:39.279Z,7.56
2024-02-02T18:00:41.307Z,7.57
2024-02-02T18:02:43.268Z,7.58
2024-02-02T18:04:45.158Z,7.58
2024-02-02T18:06:47.035Z,7.59
2024-02-02T18:08:48.876Z,7.58
2024-02-02T18:10:51.189Z,7.59
2024-02-02T18:12:53.197Z,7.60
2024-02-02T18:14:55.369Z,7.64
2024-02-02T18:16:57.183Z,7.63
2024-02-02T18:18:59.069Z,7.65
2024-02-02T18:21:01.008Z,7.67
2024-02-02T18:23:02.763Z,7.66
2024-02-02T18:25:05.084Z,7.66
2024-02-02T18:27:07.267Z,7.69
2024-02-02T18:29:09.026Z,7.69
2024-02-02T18:31:10.804Z,7.68
2024-02-02T18:33:12.690Z,7.66
2024-02-02T18:35:14.574Z,7.67
2024-02-02T18:37:16.393Z,7.68
2024-02-02T18:39:21.214Z,7.67
2024-02-02T18:41:31.756Z,7.66
2024-02-02T18:43:33.507Z,7.66
2024-02-02T18:45:35.313Z,7.67
2024-02-02T18:47:39.388Z,7.67
2024-02-02T18:49:41.394Z,7.68
2024-02-02T18:51:43.307Z,7.68
2024-02-02T18:53:45.313Z,7.68
2024-02-02T18:55:50.013Z,7.66
2024-02-02T18:57:52.068Z,7.66
2024-02-02T18:59:53.871Z,7.69
2024-02-02T19:01:56.737Z,7.72
2024-02-02T19:03:58.641Z,7.72
2024-02-02T19:06:01.894Z,7.72
2024-02-02T19:08:04.298Z,7.71
2024-02-02T19:10:06.292Z,7.72
2024-02-02T19:12:08.102Z,7.75
2024-02-02T19:14:13.336Z,7.74
2024-02-02T19:16:23.364Z,7.77
2024-02-02T19:18:25.310Z,7.76
2024-02-02T19:20:27.404Z,7.78
2024-02-02T19:22:29.354Z,7.80
2024-02-02T19:24:31.142Z,7.80
2024-02-02T19:26:33.080Z,7.82
2024-02-02T19:28:34.933Z,7.84
2024-02-02T19:30:36.876Z,7.84
2024-02-02T19:32:38.850Z,7.86
2024-02-02T19:34:41.802Z,7.87
2024-02-02T19:36:43.985Z,7.90
2024-02-02T19:38:47.012Z,7.91
2024-02-02T19:40:48.791Z,7.94
2024-02-02T19:42:50.598Z,7.97
2024-02-02T19:44:52.484Z,7.98
2024-02-02T19:46:54.386Z,8.00
2024-02-02T19:48:57.824Z,8.01
2024-02-02T19:50:59.748Z,8.02
2024-02-02T19:53:02.007Z,8.05
2024-02-02T19:55:06.652Z,8.06
2024-02-02T19:57:08.461Z,8.07
2024-02-02T19:59:10.298Z,8.12
2024-02-02T20:01:16.754Z,8.16
2024-02-02T20:03:18.618Z,8.18
2024-02-02T20:05:23.627Z,8.22
2024-02-02T20:07:26.476Z,8.23
2024-02-02T20:09:28.372Z,8.24
2024-02-02T20:11:30.795Z,8.25
2024-02-02T20:13:32.531Z,8.26
2024-02-02T20:15:34.501Z,8.27
2024-02-02T20:17:36.501Z,8.29
2024-02-02T20:19:44.517Z,8.31
2024-02-02T20:21:47.251Z,8.35
2024-02-02T20:23:53.013Z,8.36
2024-02-02T20:25:54.903Z,8.38
2024-02-02T20:27:56.764Z,8.41
2024-02-02T20:29:58.523Z,8.43
2024-02-02T20:32:00.296Z,8.45
2024-02-02T20:34:02.807Z,8.49
2024-02-02T20:36:04.998Z,8.52
2024-02-02T20:38:06.824Z,8.56
2024-02-02T20:40:09.426Z,8.58
2024-02-02T20:42:12.349Z,8.60
2024-02-02T20:44:15.090Z,8.62
2024-02-02T20:46:16.907Z,8.64
2024-02-02T20:48:24.156Z,8.66
2024-02-02T20:50:25.963Z,8.67
2024-02-02T20:52:27.783Z,8.67
2024-02-02T20:54:29.688Z,8.69
2024-02-02T20:56:31.499Z,8.71
2024-02-02T20:58:33.244Z,8.71
2024-02-02T21:00:35.664Z,8.77
2024-02-02T21:02:37.499Z,8.76
2024-02-02T21:04:39.348Z,8.77
2024-02-02T21:06:44.222Z,8.80
2024-02-02T21:08:46.410Z,8.86
2024-02-02T21:10:48.281Z,8.90
2024-02-02T21:12:50.082Z,8.91
2024-02-02T21:14:52.076Z,8.89
2024-02-02T21:16:53.840Z,8.90
2024-02-02T21:18:57.908Z,8.89
2024-02-02T21:20:59.833Z,8.89
2024-02-02T21:23:01.885Z,8.92
2024-02-02T21:25:05.994Z,8.96
2024-02-02T21:27:08.412Z,8.96
2024-02-02T21:29:10.199Z,8.98
2024-02-02T21:31:12.127Z,8.97
2024-02-02T21:33:15.388Z,8.96
2024-02-02T21:35:18.759Z,8.97
2024-02-02T21:37:20.601Z,8.99
2024-02-02T21:39:22.607Z,9.01
2024-02-02T21:41:25.907Z,9.02
2024-02-02T21:43:27.732Z,9.03
2024-02-02T21:45:33.162Z,9.04
2024-02-02T21:47:35.058Z,9.06
2024-02-02T21:49:37.647Z,9.09
2024-02-02T21:51:40.445Z,9.12
2024-02-02T21:53:43.430Z,9.14
2024-02-02T21:55:48.451Z,9.16
2024-02-02T21:57:50.440Z,9.15
2024-02-02T21:59:52.393Z,9.13
2024-02-02T22:01:54.199Z,9.14
2024-02-02T22:03:56.070Z,9.17
2024-02-02T22:05:57.937Z,9.17
2024-02-02T22:07:59.731Z,9.18
2024-02-02T22:10:01.569Z,9.22
2024-02-02T22:12:03.868Z,9.23
2024-02-02T22:14:05.647Z,9.24
2024-02-02T22:16:11.235Z,9.24
2024-02-02T22:18:13.084Z,9.27
2024-02-02T22:20:14.884Z,9.25
2024-02-02T22:22:16.781Z,9.29
2024-02-02T22:24:18.585Z,9.29
2024-02-02T22:26:20.847Z,9.31
2024-02-02T22:28:22.731Z,9.32
2024-02-02T22:30:28.356Z,9.34
2024-02-02T22:32:30.181Z,9.33
2024-02-02T22:34:32.192Z,9.34
2024-02-02T22:36:34.306Z,9.36
2024-02-02T22:38:36.156Z,9.34
2024-02-02T22:40:37.921Z,9.36
2024-02-02T22:42:39.889Z,9.35
2024-02-02T22:44:41.771Z,9.37
2024-02-02T22:46:43.649Z,9.38
2024-02-02T22:48:46.543Z,9.40
2024-02-02T22:50:48.409Z,9.40
2024-02-02T22:52:50.633Z,9.41
2024-02-02T22:54:52.530Z,9.43
2024-02-02T22:56:54.405Z,9.43
2024-02-02T22:58:56.267Z,9.43
2024-02-02T23:00:58.360Z,9.43
2024-02-02T23:03:00.161Z,9.44
2024-02-02T23:05:02.107Z,9.43
2024-02-02T23:07:05.785Z,9.44
2024-02-02T23:09:07.645Z,9.45
2024-02-02T23:11:09.523Z,9.48
2024-02-02T23:13:11.390Z,9.48
2024-02-02T23:15:13.267Z,9.48
2024-02-02T23:17:15.048Z,9.48
2024-02-02T23:19:16.852Z,9.47
2024-02-02T23:21:18.787Z,9.48
2024-02-02T23:23:20.756Z,9.48
2024-02-02T23:25:22.534Z,9.51
2024-02-02T23:27:24.383Z,9.52
2024-02-02T23:29:26.161Z,9.52
2024-02-02T23:31:27.953Z,9.53
2024-02-02T23:33:30.356Z,9.54
2024-02-02T23:35:32.276Z,9.53
2024-02-02T23:37:34.924Z,9.55
2024-02-02T23:39:36.753Z,9.55
2024-02-02T23:41:38.577Z,9.56
2024-02-02T23:43:40.309Z,9.57
2024-02-02T23:45:42.307Z,9.57
2024-02-02T23:47:44.193Z,9.56
2024-02-02T23:49:46.319Z,9.56
2024-02-02T23:51:48.509Z,9.54
2024-02-02T23:53:50.461Z,9.56
2024-02-02T23:55:52.365Z,9.52
2024-02-02T23:57:54.187Z,9.56
2024-02-02T23:59:55.993Z,9.55
